Time;durP1;ratioP1;P1;durP2;ratioP2;P2;SDS_P1;SDS_P2;PMS_P1;PMS_P2;Temp;Humidity;BMP_temperature;BMP_pressure;BME280_temperature;BME280_humidity;BME280_pressure;Samples;Min_cycle;Max_cycle;Signal;HPM_P1;HPM_P2
2022/01/07 00:00:13;;;;;;;3.20;1.90;;;;;;;20.70;26.99;99657.75;5108387;28;20512;-57
2022/01/07 00:02:39;;;;;;;3.30;2.10;;;;;;;20.70;27.25;99654.97;5091217;28;20503;-57
2022/01/07 00:05:06;;;;;;;3.15;2.20;;;;;;;20.66;27.07;99648.56;5108452;28;20121;-57
2022/01/07 00:07:31;;;;;;;3.58;2.10;;;;;;;20.70;27.01;99652.19;5108410;28;20063;-57
2022/01/07 00:09:56;;;;;;;4.22;2.00;;;;;;;20.68;27.13;99654.53;5108470;28;20044;-57
2022/01/07 00:12:22;;;;;;;3.20;2.08;;;;;;;20.67;27.03;99655.72;5108354;28;20039;-57
2022/01/07 00:14:48;;;;;;;3.47;1.88;;;;;;;20.68;27.12;99654.53;5108204;28;20445;-58
2022/01/07 00:17:14;;;;;;;3.75;2.38;;;;;;;20.68;26.99;99657.31;5109206;28;20043;-57
2022/01/07 00:19:40;;;;;;;3.28;1.95;;;;;;;20.65;27.08;99652.50;5111667;28;20055;-57
2022/01/07 00:22:05;;;;;;;4.13;2.60;;;;;;;20.67;27.00;99654.91;5092664;28;20099;-57
2022/01/07 00:24:30;;;;;;;2.90;1.85;;;;;;;20.68;27.05;99653.75;5093660;28;20537;-57
2022/01/07 00:26:56;;;;;;;3.60;2.15;;;;;;;20.66;27.11;99651.34;5111645;28;20074;-57
2022/01/07 00:29:24;;;;;;;3.45;2.05;;;;;;;20.66;27.02;99659.66;5110860;28;20564;-57
2022/01/07 00:31:50;;;;;;;3.42;2.05;;;;;;;20.67;27.08;99660.47;5111638;28;20047;-71
2022/01/07 00:34:15;;;;;;;3.30;2.00;;;;;;;20.66;26.76;99658.88;5093110;28;20043;-70
2022/01/07 00:36:41;;;;;;;3.17;1.98;;;;;;;20.64;27.05;99656.44;5111512;28;20089;-71
2022/01/07 00:39:06;;;;;;;3.13;1.77;;;;;;;20.66;26.82;99658.88;5111508;28;20056;-70
2022/01/07 00:41:32;;;;;;;3.33;2.05;;;;;;;20.65;26.82;99658.06;5111580;28;20504;-70
2022/01/07 00:43:57;;;;;;;4.38;2.00;;;;;;;20.64;26.78;99656.44;5111360;28;20052;-71
2022/01/07 00:46:23;;;;;;;3.47;2.10;;;;;;;20.64;26.93;99663.97;5111376;28;20047;-71
2022/01/07 00:48:48;;;;;;;3.63;2.25;;;;;;;20.64;26.85;99658.41;5111040;28;20127;-71
2022/01/07 00:51:14;;;;;;;3.20;1.80;;;;;;;20.63;26.97;99654.81;5110840;28;20479;-71
2022/01/07 00:53:41;;;;;;;3.15;1.83;;;;;;;20.63;27.02;99659.59;5110660;28;20046;-71
2022/01/07 00:56:06;;;;;;;3.42;2.20;;;;;;;20.62;26.93;99664.34;5110837;28;20071;-71
2022/01/07 00:58:32;;;;;;;3.13;1.70;;;;;;;20.62;26.81;99661.56;5110594;28;20082;-71
2022/01/07 01:00:57;;;;;;;3.38;1.95;;;;;;;20.62;26.82;99667.13;5109145;28;20138;-71
2022/01/07 01:03:23;;;;;;;3.25;2.00;;;;;;;20.61;26.86;99668.31;5108375;28;20047;-57
2022/01/07 01:05:49;;;;;;;2.97;1.88;;;;;;;20.62;27.06;99664.34;5110437;28;20067;-57
2022/01/07 01:08:15;;;;;;;3.03;1.83;;;;;;;20.60;26.91;99666.69;5109464;28;20676;-57
2022/01/07 01:10:40;;;;;;;3.10;1.85;;;;;;;20.61;26.95;99668.31;5109006;28;20529;-57
2022/01/07 01:13:05;;;;;;;2.90;1.70;;;;;;;20.59;26.88;99663.13;5110238;28;20447;-57
2022/01/07 01:15:31;;;;;;;3.47;1.90;;;;;;;20.59;26.99;99662.31;5110086;28;20499;-57
2022/01/07 01:17:58;;;;;;;2.95;1.90;;;;;;;20.60;26.82;99680.59;5111417;28;20052;-57
2022/01/07 01:20:24;;;;;;;2.90;1.60;;;;;;;20.58;26.77;99674.59;5110975;28;20078;-57
2022/01/07 01:22:50;;;;;;;3.40;1.98;;;;;;;20.59;26.98;99679.00;5110266;28;20076;-57
2022/01/07 01:25:16;;;;;;;3.38;2.10;;;;;;;20.58;26.82;99680.97;5109420;28;20518;-71
2022/01/07 01:27:43;;;;;;;3.20;2.10;;;;;;;20.58;26.87;99674.59;5110170;28;20043;-70
2022/01/07 01:30:12;;;;;;;3.28;1.88;;;;;;;20.54;26.88;99668.16;5109597;28;20051;-71
2022/01/07 01:32:38;;;;;;;3.03;1.75;;;;;;;20.57;26.77;99673.81;5108332;28;20042;-71
2022/01/07 01:35:06;;;;;;;2.97;1.70;;;;;;;20.57;26.72;99676.56;5108786;28;20040;-71
2022/01/07 01:37:32;;;;;;;2.63;1.70;;;;;;;20.56;26.89;99677.72;5109938;28;20043;-57
2022/01/07 01:39:58;;;;;;;2.88;1.73;;;;;;;20.57;26.80;99693.25;5110173;28;20388;-57
2022/01/07 01:42:24;;;;;;;2.78;1.60;;;;;;;20.57;26.74;99689.63;5109956;28;20052;-57
2022/01/07 01:44:49;;;;;;;3.42;1.85;;;;;;;20.56;26.89;99682.47;5110080;28;20044;-57
2022/01/07 01:47:15;;;;;;;2.90;1.90;;;;;;;20.55;26.73;99686.44;5110084;28;20054;-57
2022/01/07 01:49:41;;;;;;;2.90;1.60;;;;;;;20.56;26.61;99696.38;5109953;28;20043;-57
2022/01/07 01:52:07;;;;;;;3.13;1.98;;;;;;;20.54;26.76;99691.19;5110105;28;20126;-57
2022/01/07 01:54:32;;;;;;;2.53;1.63;;;;;;;20.55;26.71;99692.78;5110213;28;20044;-57
2022/01/07 01:56:58;;;;;;;3.45;2.00;;;;;;;20.54;26.71;99695.94;5110325;28;20473;-57
2022/01/07 01:59:28;;;;;;;2.70;1.70;;;;;;;20.53;26.75;99700.69;5110109;28;20040;-57
2022/01/07 02:01:53;;;;;;;2.65;1.60;;;;;;;20.53;26.88;99697.13;5110109;28;20046;-57
2022/01/07 02:04:20;;;;;;;3.22;1.70;;;;;;;20.53;26.86;99697.13;5110535;28;20043;-57
2022/01/07 02:06:46;;;;;;;3.10;1.88;;;;;;;20.51;26.92;99696.69;5110202;28;20044;-57
2022/01/07 02:09:11;;;;;;;3.00;2.00;;;;;;;20.52;26.91;99692.75;5110028;28;20032;-57
2022/01/07 02:11:37;;;;;;;2.75;1.70;;;;;;;20.53;26.80;99694.34;5110007;28;20055;-57
2022/01/07 02:14:02;;;;;;;2.85;1.80;;;;;;;20.52;26.93;99690.75;5110013;28;20070;-57
2022/01/07 02:16:28;;;;;;;2.58;1.65;;;;;;;20.51;26.78;99683.59;5109784;28;20038;-57
2022/01/07 02:18:54;;;;;;;3.15;1.88;;;;;;;20.51;26.78;99691.94;5109892;28;20970;-58
2022/01/07 02:21:21;;;;;;;2.72;1.60;;;;;;;20.51;26.55;99689.16;5109934;28;20071;-57
2022/01/07 02:23:47;;;;;;;2.58;1.60;;;;;;;20.51;26.71;99682.78;5109839;28;20082;-57
2022/01/07 02:26:13;;;;;;;2.42;1.52;;;;;;;20.50;26.91;99684.78;5109770;28;20122;-57
2022/01/07 02:28:41;;;;;;;2.83;1.77;;;;;;;20.51;26.76;99685.56;5108536;28;20066;-57
2022/01/07 02:31:07;;;;;;;3.40;1.73;;;;;;;20.50;26.72;99679.22;5108739;28;20524;-57
2022/01/07 02:33:32;;;;;;;2.60;1.60;;;;;;;20.50;26.75;99676.44;5109689;28;20534;-57
2022/01/07 02:35:58;;;;;;;2.95;1.60;;;;;;;20.48;26.97;99672.41;5109753;28;20032;-57
2022/01/07 02:38:23;;;;;;;3.08;1.80;;;;;;;20.51;26.76;99682.78;5109631;28;20175;-57
2022/01/07 02:40:49;;;;;;;2.88;1.60;;;;;;;20.48;26.82;99670.41;5109132;28;20116;-57
2022/01/07 02:43:14;;;;;;;2.80;1.80;;;;;;;20.48;26.66;99669.63;5109400;28;20044;-57
2022/01/07 02:45:43;;;;;;;2.50;1.38;;;;;;;20.50;26.82;99672.81;5109545;28;20124;-57
2022/01/07 02:48:08;;;;;;;2.47;1.42;;;;;;;20.49;26.64;99668.44;5109389;28;20051;-71
2022/01/07 02:50:36;;;;;;;2.22;1.40;;;;;;;20.48;26.92;99664.06;5109583;28;20044;-71
2022/01/07 02:53:07;;;;;;;2.78;1.55;;;;;;;20.46;26.75;99664.44;5109465;28;20043;-71
2022/01/07 02:55:34;;;;;;;2.58;1.65;;;;;;;20.47;26.69;99656.91;5109401;28;20418;-71
2022/01/07 02:57:59;;;;;;;2.55;1.50;;;;;;;20.46;26.86;99666.41;5109229;28;20105;-71
2022/01/07 03:00:26;;;;;;;2.90;1.70;;;;;;;20.47;26.67;99656.91;5109392;28;20465;-71
2022/01/07 03:02:52;;;;;;;2.78;1.60;;;;;;;20.47;26.60;99651.34;5109279;28;20089;-71
2022/01/07 03:05:18;;;;;;;2.63;1.50;;;;;;;20.48;26.74;99655.72;5109361;28;20126;-71
2022/01/07 03:07:47;;;;;;;2.85;1.60;;;;;;;20.47;26.68;99662.47;5109151;28;20047;-70
2022/01/07 03:10:14;;;;;;;2.70;1.50;;;;;;;20.47;26.67;99656.91;5109192;28;20047;-71
2022/01/07 03:12:43;;;;;;;2.65;1.42;;;;;;;20.47;26.66;99659.69;5108911;28;20036;-71
2022/01/07 03:15:09;;;;;;;2.38;1.52;;;;;;;20.46;26.85;99649.75;5106291;28;20059;-70
2022/01/07 03:17:37;;;;;;;2.45;1.38;;;;;;;20.46;26.72;99656.09;5090791;28;20074;-71
2022/01/07 03:20:04;;;;;;;1.70;1.17;;;;;;;20.46;26.69;99652.53;5109154;28;20475;-71
2022/01/07 03:22:29;;;;;;;2.78;1.67;;;;;;;20.45;26.68;99653.69;5108964;28;20089;-71
2022/01/07 03:24:55;;;;;;;2.67;1.58;;;;;;;20.44;26.53;99658.44;5109011;28;20056;-71
2022/01/07 03:27:20;;;;;;;2.30;1.50;;;;;;;20.46;26.61;99658.06;5108927;28;20093;-71
2022/01/07 03:29:46;;;;;;;2.95;1.55;;;;;;;20.44;26.54;99652.88;5108198;28;20048;-71
2022/01/07 03:32:11;;;;;;;2.35;1.40;;;;;;;20.45;26.51;99654.50;5107961;28;20086;-70
2022/01/07 03:34:36;;;;;;;3.00;1.60;;;;;;;20.45;26.63;99660.06;5108835;28;20411;-71
2022/01/07 03:37:02;;;;;;;2.10;1.25;;;;;;;20.45;26.55;99660.06;5108546;28;20048;-71
2022/01/07 03:39:28;;;;;;;3.00;1.45;;;;;;;20.44;26.60;99658.44;5108637;28;20085;-71
2022/01/07 03:41:53;;;;;;;2.60;1.40;;;;;;;20.44;26.73;99668.72;5108809;28;20043;-71
2022/01/07 03:44:18;;;;;;;2.80;1.58;;;;;;;20.43;26.60;99667.94;5108511;28;20047;-71
2022/01/07 03:46:44;;;;;;;2.22;1.30;;;;;;;20.43;26.62;99661.53;5108680;28;20073;-71
2022/01/07 03:49:09;;;;;;;2.60;1.30;;;;;;;20.42;26.51;99660.72;5108808;28;20115;-71
2022/01/07 03:51:35;;;;;;;2.13;1.25;;;;;;;20.43;26.59;99655.97;5108067;28;20051;-71
2022/01/07 03:54:00;;;;;;;2.40;1.40;;;;;;;20.42;26.55;99654.38;5111463;28;20044;-71
2022/01/07 03:56:26;;;;;;;2.90;1.60;;;;;;;20.43;26.52;99658.75;5111789;28;20047;-71
2022/01/07 03:58:51;;;;;;;3.10;1.60;;;;;;;20.43;26.63;99664.31;5111743;28;20050;-71
2022/01/07 04:01:16;;;;;;;3.20;1.65;;;;;;;20.41;26.60;99661.09;5111714;28;20067;-71
2022/01/07 04:03:42;;;;;;;2.65;1.70;;;;;;;20.43;26.68;99675.44;5111417;28;20119;-71
2022/01/07 04:06:07;;;;;;;2.55;1.52;;;;;;;20.43;26.63;99664.31;5111497;28;20083;-71
2022/01/07 04:08:33;;;;;;;2.72;1.40;;;;;;;20.40;26.59;99651.97;5111921;28;20487;-71
2022/01/07 04:10:58;;;;;;;2.63;1.52;;;;;;;20.42;26.63;99649.63;5111477;28;20048;-71
2022/01/07 04:13:24;;;;;;;2.22;1.45;;;;;;;20.39;26.78;99647.59;5111297;28;20055;-71
2022/01/07 04:15:49;;;;;;;2.38;1.45;;;;;;;20.42;26.56;99654.38;5111343;28;20035;-70
2022/01/07 04:18:14;;;;;;;2.97;1.60;;;;;;;20.39;26.71;99655.13;5111284;28;20149;-71
2022/01/07 04:20:40;;;;;;;2.45;1.38;;;;;;;20.39;26.62;99660.69;5108521;28;20080;-70
2022/01/07 04:23:07;;;;;;;2.45;1.45;;;;;;;20.41;26.60;99658.31;5111161;28;20418;-71
2022/01/07 04:25:33;;;;;;;2.90;1.50;;;;;;;20.40;26.50;99657.53;5111150;28;20063;-71
2022/01/07 04:28:08;;;;;;;2.53;1.30;;;;;;;20.39;26.65;99660.69;5111153;28;20067;-70
2022/01/07 04:30:36;;;;;;;2.65;1.50;;;;;;;20.41;26.55;99666.66;5110039;28;20054;-71
2022/01/07 04:33:03;;;;;;;3.17;1.50;;;;;;;20.41;26.63;99681.34;5111400;28;20044;-71
2022/01/07 04:35:30;;;;;;;2.70;1.60;;;;;;;20.40;26.58;99673.41;5111250;28;20048;-71
2022/01/07 04:37:55;;;;;;;2.47;1.45;;;;;;;20.40;26.42;99676.97;5111009;28;20411;-71
2022/01/07 04:40:21;;;;;;;2.67;1.52;;;;;;;20.39;26.58;99667.03;5111127;28;20130;-70
2022/01/07 04:42:47;;;;;;;2.88;1.50;;;;;;;20.37;26.56;99672.16;5111109;28;20039;-70
2022/01/07 04:45:13;;;;;;;2.53;1.40;;;;;;;20.39;26.63;99663.47;5110996;28;20126;-70
2022/01/07 04:47:39;;;;;;;2.55;1.50;;;;;;;20.38;26.55;99671.00;5111035;28;20136;-70
2022/01/07 04:50:08;;;;;;;2.28;1.40;;;;;;;20.37;26.63;99666.59;5111227;28;20082;-71
2022/01/07 04:52:33;;;;;;;2.70;1.80;;;;;;;20.38;26.65;99670.19;5110909;28;20036;-71
2022/01/07 04:54:59;;;;;;;2.75;1.60;;;;;;;20.38;26.62;99671.00;5110783;28;20657;-71
2022/01/07 04:57:25;;;;;;;2.67;1.70;;;;;;;20.37;26.55;99668.59;5110868;28;20065;-71
2022/01/07 04:59:50;;;;;;;2.17;1.45;;;;;;;20.38;26.52;99672.97;5110609;28;20078;-71
2022/01/07 05:02:19;;;;;;;3.03;1.77;;;;;;;20.35;26.63;99666.94;5110703;28;20055;-71
2022/01/07 05:04:44;;;;;;;2.50;1.55;;;;;;;20.38;26.55;99679.31;5110038;28;20195;-71
2022/01/07 05:07:10;;;;;;;2.28;1.30;;;;;;;20.38;26.62;99686.84;5109881;28;20039;-71
2022/01/07 05:09:35;;;;;;;2.25;1.35;;;;;;;20.38;26.60;99693.22;5109464;28;20042;-71
2022/01/07 05:12:01;;;;;;;2.67;1.55;;;;;;;20.38;26.66;99686.84;5091893;28;20044;-71
2022/01/07 05:14:26;;;;;;;2.65;1.50;;;;;;;20.39;26.49;99688.47;5110329;28;20093;-57
2022/01/07 05:16:51;;;;;;;2.50;1.50;;;;;;;20.50;26.90;99687.56;5107502;28;20407;-57
2022/01/07 05:19:17;;;;;;;2.70;1.70;;;;;;;20.73;26.73;99687.59;5110447;28;20055;-57
2022/01/07 05:21:42;;;;;;;1.95;1.20;;;;;;;20.80;26.78;99692.50;5110697;28;20047;-57
2022/01/07 05:24:08;;;;;;;2.55;1.55;;;;;;;20.76;26.57;99689.63;5110410;28;20035;-57
2022/01/07 05:26:33;;;;;;;2.33;1.30;;;;;;;20.72;26.68;99686.00;5110671;28;20047;-57
2022/01/07 05:28:59;;;;;;;2.00;1.20;;;;;;;20.71;26.50;99694.69;5109900;28;20131;-57
2022/01/07 05:31:25;;;;;;;2.70;1.52;;;;;;;20.69;26.55;99691.47;5110192;28;20126;-57
2022/01/07 05:33:52;;;;;;;2.22;1.20;;;;;;;20.64;26.43;99694.53;5108446;28;20131;-57
2022/01/07 05:36:18;;;;;;;2.63;1.50;;;;;;;20.61;26.56;99694.13;5110470;28;20051;-57
2022/01/07 05:38:44;;;;;;;2.20;1.30;;;;;;;20.60;26.61;99691.72;5110616;28;20075;-57
2022/01/07 05:41:09;;;;;;;3.05;1.67;;;;;;;20.58;26.68;99685.72;5110647;28;20455;-71
2022/01/07 05:43:35;;;;;;;2.50;1.50;;;;;;;20.57;26.63;99686.88;5110612;28;20052;-71
2022/01/07 05:46:00;;;;;;;3.35;1.90;;;;;;;20.54;26.79;99682.84;5109776;28;20035;-70
2022/01/07 05:48:26;;;;;;;2.30;1.42;;;;;;;20.53;26.75;99681.25;5110438;28;20112;-70
2022/01/07 05:50:51;;;;;;;2.65;1.60;;;;;;;20.53;26.69;99686.00;5110446;28;20042;-71
2022/01/07 05:53:17;;;;;;;2.83;1.60;;;;;;;20.51;26.52;99691.94;5110134;28;20114;-71
2022/01/07 05:55:42;;;;;;;2.97;1.52;;;;;;;20.53;26.66;99691.56;5110282;28;20130;-71
2022/01/07 05:58:08;;;;;;;2.90;1.83;;;;;;;20.52;26.76;99696.31;5110278;28;20444;-71
2022/01/07 06:00:34;;;;;;;2.60;1.42;;;;;;;20.52;26.78;99701.06;5110081;28;20051;-71
2022/01/07 06:02:59;;;;;;;2.50;1.50;;;;;;;20.52;26.59;99710.22;5110185;28;20067;-71
2022/01/07 06:05:25;;;;;;;2.90;1.63;;;;;;;20.52;26.68;99704.66;5109980;28;20043;-71
2022/01/07 06:07:50;;;;;;;2.75;1.70;;;;;;;20.52;26.73;99709.41;5109922;28;20048;-71
2022/01/07 06:10:15;;;;;;;2.40;1.20;;;;;;;20.52;26.71;99703.84;5110009;28;20051;-71
2022/01/07 06:12:41;;;;;;;2.15;1.42;;;;;;;20.51;26.76;99705.03;5109879;28;20511;-71
2022/01/07 06:15:07;;;;;;;2.38;1.50;;;;;;;20.52;26.85;99710.22;5108863;28;20055;-71
2022/01/07 06:17:33;;;;;;;2.40;1.35;;;;;;;20.48;26.62;99709.31;5111954;28;20067;-71
2022/01/07 06:19:58;;;;;;;2.60;1.50;;;;;;;20.53;26.81;99713.78;5118832;28;20046;-71
2022/01/07 06:22:24;;;;;;;2.50;1.60;;;;;;;20.53;26.60;99716.56;5117532;28;20130;-71
2022/01/07 06:24:49;;;;;;;2.90;1.70;;;;;;;20.53;26.69;99708.22;5118244;28;20047;-71
2022/01/07 06:27:15;;;;;;;2.45;1.50;;;;;;;20.52;26.74;99713.00;5110368;28;20046;-71
2022/01/07 06:29:40;;;;;;;4.55;1.23;;;;;;;20.54;28.30;99718.19;5109065;28;20044;-68
2022/01/07 06:32:07;;;;;;;1.92;1.10;;;;;;;20.55;27.48;99720.59;5109768;28;20039;-63
2022/01/07 06:34:33;;;;;;;3.08;1.13;;;;;;;20.55;27.17;99714.22;5109462;28;20044;-62
2022/01/07 06:36:59;;;;;;;2.25;1.25;;;;;;;20.55;27.07;99719.78;5108742;28;20058;-49
2022/01/07 06:39:28;;;;;;;2.30;1.17;;;;;;;20.53;27.14;99713.78;5109718;28;20043;-48
2022/01/07 06:41:54;;;;;;;4.20;1.30;;;;;;;20.54;27.13;99718.19;5109599;28;20057;-48
2022/01/07 06:44:20;;;;;;;2.03;1.10;;;;;;;20.54;27.06;99718.19;5109768;28;20067;-47
2022/01/07 06:46:45;;;;;;;2.10;1.30;;;;;;;20.55;26.96;99714.22;5109468;28;20124;-49
2022/01/07 06:49:13;;;;;;;2.35;0.95;;;;;;;20.52;26.91;99723.31;5109468;28;20043;-50
2022/01/07 06:51:39;;;;;;;2.80;1.13;;;;;;;20.54;27.14;99723.75;5109336;28;20058;-51
2022/01/07 06:54:05;;;;;;;1.90;1.10;;;;;;;20.54;27.09;99724.53;5109268;28;20036;-48
2022/01/07 06:56:30;;;;;;;3.92;1.05;;;;;;;20.52;27.02;99721.31;5109293;28;20089;-48
2022/01/07 06:58:55;;;;;;;4.30;1.00;;;;;;;20.53;26.97;99719.34;5109339;28;20043;-62
2022/01/07 07:01:21;;;;;;;1.75;1.15;;;;;;;20.53;26.94;99722.94;5109587;28;20031;-62
2022/01/07 07:03:46;;;;;;;1.55;0.93;;;;;;;20.54;26.76;99732.06;5109209;28;20043;-62
2022/01/07 07:06:13;;;;;;;2.15;1.02;;;;;;;20.53;26.83;99744.38;5109318;28;20048;-62
2022/01/07 07:08:39;;;;;;;2.45;1.05;;;;;;;20.55;26.82;99744.78;5109138;28;20051;-62
2022/01/07 07:11:06;;;;;;;1.63;1.02;;;;;;;20.54;26.71;99748.75;5109238;28;20452;-62
2022/01/07 07:13:32;;;;;;;1.83;1.10;;;;;;;20.54;26.75;99751.53;5108927;28;20035;-62
2022/01/07 07:15:57;;;;;;;2.00;1.20;;;;;;;20.55;26.66;99755.91;5108866;28;20416;-62
2022/01/07 07:18:22;;;;;;;1.85;1.23;;;;;;;20.54;26.66;99759.84;5109211;28;20051;-62
2022/01/07 07:20:48;;;;;;;1.90;1.17;;;;;;;20.55;26.54;99764.25;5109207;28;20063;-62
2022/01/07 07:23:13;;;;;;;2.30;1.20;;;;;;;20.55;26.36;99762.28;5109351;28;20039;-48
2022/01/07 07:25:39;;;;;;;2.40;0.98;;;;;;;20.55;26.66;99758.69;5109063;28;20099;-48
2022/01/07 07:28:05;;;;;;;1.83;1.00;;;;;;;20.53;26.54;99759.06;5112769;28;20048;-48
2022/01/07 07:30:36;;;;;;;1.45;0.90;;;;;;;20.54;26.48;99757.09;5111976;28;20126;-48
2022/01/07 07:38:40;;;;;;;1.65;1.10;;;;;;;20.55;26.81;99758.69;5112723;28;20054;-48
2022/01/07 07:41:08;;;;;;;1.75;1.10;;;;;;;20.55;26.47;99765.03;5112339;28;20048;-51
2022/01/07 07:43:35;;;;;;;1.42;0.80;;;;;;;20.54;26.59;99768.19;5112161;28;20151;-48
2022/01/07 07:46:01;;;;;;;2.13;1.20;;;;;;;20.53;26.68;99775.72;5112479;28;20480;-52
2022/01/07 07:48:26;;;;;;;1.75;1.00;;;;;;;20.53;26.50;99770.16;5112268;28;20061;-49
2022/01/07 07:50:52;;;;;;;2.25;1.02;;;;;;;20.53;26.52;99774.94;5094415;28;20036;-52
2022/01/07 07:53:18;;;;;;;1.38;0.85;;;;;;;20.53;26.41;99772.16;5097642;28;20048;-47
2022/01/07 07:55:51;;;;;;;1.90;1.23;;;;;;;20.52;26.62;99776.09;5096152;28;20138;-51
2022/01/07 07:58:16;;;;;;;;;;;;;;;20.56;26.52;99779.75;5094670;28;20043;-48
2022/01/07 08:00:42;;;;;;;4.40;1.00;;;;;;;20.51;26.52;99768.94;5106206;28;20291;-54
2022/01/07 08:03:07;;;;;;;2.30;1.10;;;;;;;20.49;26.75;99766.50;5100770;28;20039;-50
2022/01/07 08:05:32;;;;;;;1.77;1.10;;;;;;;20.52;26.91;99765.00;5103301;28;20190;-50
2022/01/07 08:08:02;;;;;;;1.50;0.90;;;;;;;20.54;26.82;99765.41;5101153;28;20076;-48
2022/01/07 08:10:27;;;;;;;7.28;1.35;;;;;;;20.54;26.93;99757.09;5105864;28;20126;-51
2022/01/07 08:18:15;;;;;;;1.90;1.10;;;;;;;20.56;26.97;99765.84;5107005;28;20063;-48
2022/01/07 08:20:41;;;;;;;2.10;1.23;;;;;;;20.57;26.97;99761.91;5107556;28;20062;-50
2022/01/07 08:23:06;;;;;;;2.30;1.33;;;;;;;20.57;26.98;99759.13;5106332;28;20052;-46
2022/01/07 08:25:32;;;;;;;2.00;1.30;;;;;;;20.59;27.20;99760.38;5106392;28;20051;-50
2022/01/07 08:28:04;;;;;;;2.15;1.35;;;;;;;20.58;26.99;99764.34;5105697;28;20039;-47
2022/01/07 08:30:36;;;;;;;2.25;1.45;;;;;;;20.59;27.22;99754.81;5104688;28;20040;-51
2022/01/07 08:35:47;;;;;;;2.85;1.50;;;;;;;20.64;27.15;99752.91;5099356;28;20541;-66
2022/01/07 08:38:13;;;;;;;4.82;1.42;;;;;;;20.66;27.21;99750.59;5103902;28;20123;-60
2022/01/07 08:40:39;;;;;;;2.35;1.40;;;;;;;20.66;27.17;99748.63;5100947;28;20403;-62
2022/01/07 08:43:05;;;;;;;2.65;1.55;;;;;;;20.68;27.13;99748.25;5108436;28;20036;-60
2022/01/07 08:45:31;;;;;;;2.38;1.50;;;;;;;20.69;27.20;99749.84;5095214;28;20442;-60
2022/01/07 08:47:56;;;;;;;2.40;1.35;;;;;;;20.69;27.27;99750.66;5101845;28;20523;-61
2022/01/07 08:50:22;;;;;;;2.17;1.27;;;;;;;20.71;27.17;99755.84;5103568;28;21889;-61
2022/01/07 08:52:48;;;;;;;2.40;1.42;;;;;;;20.73;27.33;99757.09;5098037;28;20497;-61
2022/01/07 08:55:13;;;;;;;4.57;1.73;;;;;;;20.73;27.44;99757.09;5098223;28;20053;-61
2022/01/07 08:57:39;;;;;;;3.10;1.70;;;;;;;20.73;27.16;99765.44;5107805;28;20032;-61
2022/01/07 09:00:05;;;;;;;4.30;1.73;;;;;;;20.74;27.25;99767.03;5091967;28;20445;-61
2022/01/07 09:02:31;;;;;;;3.65;1.90;;;;;;;20.74;27.25;99761.47;5106234;28;20141;-57
2022/01/07 09:04:56;;;;;;;2.97;1.73;;;;;;;20.76;27.29;99773.03;5101392;28;20130;-58
2022/01/07 09:07:21;;;;;;;2.40;1.48;;;;;;;20.75;27.32;99767.84;5099318;28;20052;-59
2022/01/07 09:09:47;;;;;;;3.65;1.77;;;;;;;20.75;27.29;99768.66;5101571;28;20058;-59
2022/01/07 09:12:13;;;;;;;3.28;1.85;;;;;;;20.76;27.20;99781.38;5091760;28;20048;-60
2022/01/07 09:14:38;;;;;;;2.67;1.50;;;;;;;20.79;26.96;99772.31;5107099;28;20130;-58
2022/01/07 09:17:04;;;;;;;2.42;1.52;;;;;;;20.81;26.90;99769.16;5099464;28;20028;-58
2022/01/07 09:19:30;;;;;;;2.90;1.45;;;;;;;20.81;27.02;99771.94;5089201;28;20423;-58
2022/01/07 09:21:56;;;;;;;4.20;1.63;;;;;;;20.81;27.05;99769.97;5103074;28;20055;-58
2022/01/07 09:24:22;;;;;;;3.13;1.60;;;;;;;20.84;26.89;99773.97;5103759;28;20114;-57
2022/01/07 09:26:48;;;;;;;2.88;1.60;;;;;;;20.85;26.74;99779.16;5104529;28;20035;-60
2022/01/07 09:29:13;;;;;;;4.03;1.58;;;;;;;20.85;26.79;99768.03;5097463;28;20055;-58
2022/01/07 09:31:39;;;;;;;3.08;1.63;;;;;;;20.86;26.81;99772.47;5094429;28;20067;-60
2022/01/07 09:34:06;;;;;;;2.20;1.55;;;;;;;20.88;26.86;99766.53;5099781;28;20427;-61
2022/01/07 09:36:33;;;;;;;3.30;1.65;;;;;;;20.88;26.80;99767.34;5091308;28;20138;-59
2022/01/07 09:38:58;;;;;;;2.97;1.80;;;;;;;20.92;26.41;99766.59;5103641;28;20176;-58
2022/01/07 09:41:25;;;;;;;3.08;1.77;;;;;;;20.93;26.67;99763.44;5102690;28;20043;-58
2022/01/07 09:43:50;;;;;;;2.83;1.70;;;;;;;20.93;26.59;99754.28;5091306;28;20046;-53
2022/01/07 09:46:18;;;;;;;3.47;1.90;;;;;;;20.95;26.46;99761.09;5092397;28;20040;-55
2022/01/07 09:48:45;;;;;;;3.50;1.60;;;;;;;20.96;26.46;99759.13;5105605;28;20050;-54
2022/01/07 09:51:13;;;;;;;2.30;1.48;;;;;;;20.96;26.94;99762.72;5103317;28;20411;-54
2022/01/07 09:53:39;;;;;;;3.88;1.50;;;;;;;20.96;27.06;99762.72;5105884;28;20048;-53
2022/01/07 09:56:04;;;;;;;2.72;1.50;;;;;;;20.97;27.22;99772.66;5098616;28;20047;-54
2022/01/07 09:58:34;;;;;;;2.85;1.58;;;;;;;20.95;27.64;99777.78;5095832;28;20050;-58
2022/01/07 10:01:01;;;;;;;2.67;1.38;;;;;;;20.97;28.22;99777.41;5103314;28;20089;-56
2022/01/07 10:03:38;;;;;;;2.75;1.65;;;;;;;21.00;28.35;99785.00;5093114;28;20081;-48
2022/01/07 10:06:33;;;;;;;6.80;1.58;;;;;;;21.01;28.80;99779.13;5098017;28;20154;-49
2022/01/07 10:09:00;;;;;;;2.50;1.60;;;;;;;21.02;28.81;99785.47;5094887;28;20040;-51
2022/01/07 10:11:26;;;;;;;5.10;1.70;;;;;;;21.01;28.66;99781.09;5104039;28;20481;-53
2022/01/07 10:14:18;;;;;;;2.63;1.50;;;;;;;21.03;29.00;99784.31;5102067;28;20075;-52
2022/01/07 10:16:55;;;;;;;2.92;1.58;;;;;;;21.02;28.94;99777.94;5090724;28;20047;-51
2022/01/07 10:19:41;;;;;;;2.63;1.33;;;;;;;21.02;29.08;99777.13;5099111;28;20078;-48
2022/01/07 10:22:08;;;;;;;2.97;1.60;;;;;;;21.02;29.41;99771.56;5101688;28;21442;-51
2022/01/07 10:24:56;;;;;;;2.50;1.50;;;;;;;21.08;29.67;99767.31;5101965;28;20043;-59
2022/01/07 10:27:26;;;;;;;2.70;1.70;;;;;;;21.09;29.31;99760.59;5104108;28;20168;-58
2022/01/07 10:29:52;;;;;;;3.30;1.65;;;;;;;21.09;29.38;99755.03;5103328;28;20577;-53
2022/01/07 10:32:21;;;;;;;3.17;1.60;;;;;;;21.08;29.88;99759.78;5079416;28;20060;-53
2022/01/07 10:35:13;;;;;;;3.60;1.70;;;;;;;21.07;29.98;99749.81;5086014;28;20548;-53
2022/01/07 10:37:51;;;;;;;2.63;1.42;;;;;;;21.08;30.01;99748.66;5102189;28;20105;-56
2022/01/07 10:40:22;;;;;;;3.85;1.70;;;;;;;21.08;30.10;99742.28;5104818;28;20051;-54
2022/01/07 10:42:48;;;;;;;2.95;1.65;;;;;;;21.09;30.00;99749.47;5104796;28;20538;-54
2022/01/07 10:45:15;;;;;;;3.35;1.60;;;;;;;21.09;29.97;99749.47;5101966;28;20051;-49
2022/01/07 10:47:40;;;;;;;3.20;1.58;;;;;;;21.12;29.92;99749.50;5094558;28;20043;-51
2022/01/07 10:50:25;;;;;;;3.22;1.50;;;;;;;21.10;30.14;99751.06;5096825;28;20082;-55
2022/01/07 10:52:51;;;;;;;3.13;1.67;;;;;;;21.08;30.52;99748.66;5097675;28;21803;-54
2022/01/07 10:55:20;;;;;;;3.35;1.70;;;;;;;21.11;30.10;99749.88;5096886;28;20055;-50
2022/01/07 10:57:49;;;;;;;3.78;1.70;;;;;;;21.14;30.13;99746.34;5097667;28;20152;-55
2022/01/07 11:00:18;;;;;;;3.33;1.80;;;;;;;21.18;30.17;99741.66;5093988;28;20574;-47
2022/01/07 11:02:44;;;;;;;3.10;1.88;;;;;;;21.18;30.10;99738.88;5097094;28;20036;-53
2022/01/07 11:05:10;;;;;;;2.70;1.60;;;;;;;21.21;30.28;99738.13;5095819;28;20563;-56
2022/01/07 11:07:36;;;;;;;2.60;1.52;;;;;;;21.23;29.91;99737.78;5104260;28;20124;-55
2022/01/07 11:10:04;;;;;;;4.32;1.67;;;;;;;21.23;30.29;99733.03;5105623;28;20057;-52
2022/01/07 11:12:30;;;;;;;2.25;1.35;;;;;;;21.24;30.23;99734.63;5094107;28;20084;-54
2022/01/07 11:14:58;;;;;;;3.63;1.50;;;;;;;21.23;29.93;99737.78;5106359;28;20050;-51
2022/01/07 11:17:24;;;;;;;3.30;1.55;;;;;;;21.24;29.79;99745.75;5095045;28;20071;-55
2022/01/07 11:20:01;;;;;;;3.63;1.60;;;;;;;21.23;30.06;99740.56;5094740;28;20031;-50
2022/01/07 11:22:27;;;;;;;2.10;1.27;;;;;;;21.25;29.71;99736.25;5102141;28;20043;-53
2022/01/07 11:25:06;;;;;;;3.28;1.80;;;;;;;21.26;29.78;99735.06;5102190;28;20411;-53
2022/01/07 11:27:54;;;;;;;2.40;1.40;;;;;;;21.27;30.00;99733.09;5103636;28;20047;-53
2022/01/07 11:30:23;;;;;;;2.90;1.60;;;;;;;21.28;29.76;99729.16;5100367;28;20141;-47
2022/01/07 11:32:51;;;;;;;4.70;1.60;;;;;;;21.38;29.48;99725.78;5095848;28;20113;-54
2022/01/07 11:35:16;;;;;;;2.85;1.48;;;;;;;21.69;29.03;99717.13;5097164;28;20047;-55
2022/01/07 11:37:43;;;;;;;4.60;1.90;;;;;;;21.99;28.49;99719.97;5094018;28;20054;-54
2022/01/07 11:40:09;;;;;;;3.45;1.85;;;;;;;22.29;28.31;99726.78;5077987;28;20373;-52
2022/01/07 11:42:43;;;;;;;2.90;1.60;;;;;;;22.42;28.10;99728.97;5096759;28;20122;-54
2022/01/07 11:45:26;;;;;;;3.10;1.80;;;;;;;22.53;28.19;99727.13;5099672;28;20075;-53